Time;durP1;ratioP1;P1;durP2;ratioP2;P2;SDS_P1;SDS_P2;PMS_P1;PMS_P2;Temp;Humidity;BMP_temperature;BMP_pressure;BME280_temperature;BME280_humidity;BME280_pressure;Samples;Min_cycle;Max_cycle;Signal;HPM_P1;HPM_P2
2021/01/27 00:00:56;;;;;;;26.98;23.13;;;21.70;99.90;;;;;;6152932;23;20033;-38
2021/01/27 00:03:22;;;;;;;26.27;23.48;;;21.70;99.90;;;;;;6152658;23;20013;-39
2021/01/27 00:05:50;;;;;;;29.38;24.63;;;21.70;99.90;;;;;;6152827;23;20014;-37
2021/01/27 00:08:17;;;;;;;29.23;23.70;;;21.70;99.90;;;;;;6126847;23;20005;-38
2021/01/27 00:10:42;;;;;;;25.10;22.45;;;21.70;99.90;;;;;;6152992;23;20001;-39
2021/01/27 00:13:12;;;;;;;22.52;20.13;;;21.60;99.90;;;;;;6154414;23;20328;-38
2021/01/27 00:15:41;;;;;;;24.20;21.48;;;21.60;99.90;;;;;;6153193;23;20006;-37
2021/01/27 00:18:09;;;;;;;24.67;21.73;;;21.60;99.90;;;;;;6155139;23;20016;-40
2021/01/27 00:20:35;;;;;;;23.55;20.30;;;21.50;99.90;;;;;;6154858;23;20064;-39
2021/01/27 00:23:01;;;;;;;23.52;19.90;;;21.60;99.90;;;;;;6155343;23;20001;-39
2021/01/27 00:25:30;;;;;;;24.35;20.60;;;21.50;99.90;;;;;;6155483;23;20013;-39
2021/01/27 00:27:57;;;;;;;20.98;18.77;;;21.50;99.90;;;;;;6155792;23;20002;-38
2021/01/27 00:30:30;;;;;;;18.63;16.73;;;21.40;99.90;;;;;;6156230;23;20056;-38
2021/01/27 00:32:57;;;;;;;21.55;18.10;;;21.40;99.90;;;;;;6155223;23;19998;-40
2021/01/27 00:35:27;;;;;;;17.73;15.57;;;21.40;99.90;;;;;;6155224;23;20008;-37
2021/01/27 00:37:55;;;;;;;14.23;12.73;;;21.40;99.90;;;;;;6155045;23;20002;-40
2021/01/27 00:40:21;;;;;;;14.65;13.00;;;21.40;99.90;;;;;;6155685;23;20006;-41
2021/01/27 00:42:48;;;;;;;13.70;12.30;;;21.40;99.90;;;;;;6155396;23;20002;-40
2021/01/27 00:45:15;;;;;;;14.57;13.05;;;21.30;99.90;;;;;;6155185;23;20372;-38
2021/01/27 00:47:41;;;;;;;14.43;12.93;;;21.30;99.90;;;;;;6155508;23;20028;-40
2021/01/27 00:50:07;;;;;;;15.25;13.65;;;21.30;99.90;;;;;;6155285;23;20005;-41
2021/01/27 00:52:33;;;;;;;13.13;11.70;;;21.30;99.90;;;;;;6154610;23;20025;-38
2021/01/27 00:54:59;;;;;;;13.73;12.23;;;21.30;99.90;;;;;;6154595;23;20006;-40
2021/01/27 00:57:25;;;;;;;15.45;13.85;;;21.20;99.90;;;;;;6154780;23;20424;-40
2021/01/27 00:59:50;;;;;;;12.25;10.95;;;21.20;99.90;;;;;;6155197;23;20467;-41
2021/01/27 01:02:16;;;;;;;13.82;12.35;;;21.20;99.90;;;;;;6154666;23;20444;-40
2021/01/27 01:04:42;;;;;;;10.90;9.80;;;21.20;99.90;;;;;;6154777;23;20064;-40
2021/01/27 01:07:08;;;;;;;12.18;10.93;;;21.20;99.90;;;;;;6129264;23;20056;-40
2021/01/27 01:09:34;;;;;;;10.07;9.00;;;21.20;99.90;;;;;;6154945;23;20347;-40
2021/01/27 01:12:00;;;;;;;12.30;10.38;;;21.20;99.90;;;;;;6154914;23;19998;-40
2021/01/27 01:14:26;;;;;;;11.05;8.05;;;21.20;99.90;;;;;;6129172;23;20050;-40
2021/01/27 01:16:52;;;;;;;11.40;10.20;;;21.10;99.90;;;;;;6155226;23;20006;-40
2021/01/27 01:19:18;;;;;;;11.80;10.55;;;21.20;99.90;;;;;;6155362;23;20028;-40
2021/01/27 01:21:44;;;;;;;12.00;9.85;;;21.20;99.90;;;;;;6155223;23;19998;-40
2021/01/27 01:24:10;;;;;;;10.52;9.35;;;21.20;99.90;;;;;;6155085;23;20024;-40
2021/01/27 01:26:36;;;;;;;9.88;8.90;;;21.20;99.90;;;;;;6155320;23;20009;-40
2021/01/27 01:29:03;;;;;;;12.25;9.27;;;21.20;99.90;;;;;;6129100;23;20428;-40
2021/01/27 01:31:29;;;;;;;11.05;9.23;;;21.10;99.90;;;;;;6155308;23;19998;-40
2021/01/27 01:33:55;;;;;;;10.13;8.57;;;21.10;99.90;;;;;;6155252;23;20008;-40
2021/01/27 01:36:20;;;;;;;8.75;7.85;;;21.10;99.90;;;;;;6155208;23;20005;-39
2021/01/27 01:38:46;;;;;;;8.27;7.40;;;21.10;99.90;;;;;;6155041;23;20076;-41
2021/01/27 01:41:12;;;;;;;9.15;8.10;;;21.10;99.90;;;;;;6155076;23;20005;-40
2021/01/27 01:43:41;;;;;;;8.20;6.78;;;21.10;99.90;;;;;;6154712;23;20093;-40
2021/01/27 01:46:20;;;;;;;8.63;7.68;;;21.10;99.90;;;;;;6154811;23;20076;-40
2021/01/27 01:49:03;;;;;;;8.35;7.07;;;21.10;99.90;;;;;;6154793;23;19997;-40
2021/01/27 01:51:38;;;;;;;8.43;7.35;;;21.10;99.90;;;;;;6154688;23;20045;-41
2021/01/27 01:54:39;;;;;;;9.27;7.55;;;21.10;99.90;;;;;;6155031;23;20376;-40
2021/01/27 01:57:12;;;;;;;7.55;6.75;;;21.10;99.90;;;;;;6154554;23;20013;-40
2021/01/27 01:59:44;;;;;;;7.60;6.55;;;21.00;99.90;;;;;;6154919;23;20737;-41
2021/01/27 02:02:10;;;;;;;6.85;6.15;;;21.00;99.90;;;;;;6154115;23;20001;-40
2021/01/27 02:04:46;;;;;;;6.65;5.35;;;21.00;99.90;;;;;;6154559;23;20424;-40
2021/01/27 02:07:12;;;;;;;7.18;5.55;;;21.00;99.90;;;;;;6128868;23;20008;-41
2021/01/27 02:09:37;;;;;;;6.72;5.38;;;21.00;99.90;;;;;;6154501;23;19998;-40
2021/01/27 02:12:25;;;;;;;6.07;5.40;;;21.00;99.90;;;;;;6154588;23;20025;-40
2021/01/27 02:15:23;;;;;;;5.45;4.95;;;21.00;99.90;;;;;;6154694;23;20409;-39
2021/01/27 02:18:24;;;;;;;5.57;4.93;;;21.00;99.90;;;;;;6155013;23;20629;-40
2021/01/27 02:21:39;;;;;;;5.45;4.95;;;21.00;99.90;;;;;;5983741;23;20011;-41
2021/01/27 02:24:42;;;;;;;5.47;4.38;;;20.90;99.90;;;;;;6154778;23;20323;-40
2021/01/27 02:27:23;;;;;;;5.32;4.57;;;21.00;99.90;;;;;;6006707;23;20007;-40
2021/01/27 02:30:16;;;;;;;5.75;4.63;;;21.00;99.90;;;;;;6007509;23;20027;-40
2021/01/27 02:32:55;;;;;;;4.70;4.30;;;21.00;99.90;;;;;;6007535;23;20016;-41
2021/01/27 02:35:40;;;;;;;3.55;3.25;;;20.90;99.90;;;;;;6007336;23;20008;-41
2021/01/27 02:38:34;;;;;;;4.88;3.92;;;20.90;99.90;;;;;;6007337;23;20012;-41
2021/01/27 02:41:09;;;;;;;4.70;4.22;;;20.90;99.90;;;;;;6007480;23;20012;-41
2021/01/27 02:44:04;;;;;;;5.47;3.85;;;20.90;99.90;;;;;;6007438;23;20368;-40
2021/01/27 02:46:47;;;;;;;4.53;4.10;;;20.90;99.90;;;;;;6007401;23;20016;-40
2021/01/27 02:49:34;;;;;;;4.50;3.97;;;20.90;99.90;;;;;;6006692;23;20065;-40
2021/01/27 02:52:22;;;;;;;4.00;3.65;;;20.90;99.90;;;;;;6006697;23;20019;-40
2021/01/27 02:55:05;;;;;;;5.55;4.03;;;20.90;99.90;;;;;;6007253;23;20011;-41
2021/01/27 02:57:43;;;;;;;3.75;3.35;;;20.90;99.90;;;;;;6007505;23;20008;-40
2021/01/27 03:00:30;;;;;;;4.10;3.70;;;20.90;99.90;;;;;;6007279;23;20078;-40
2021/01/27 03:03:02;;;;;;;4.20;3.65;;;20.90;99.90;;;;;;6014830;23;20013;-39
2021/01/27 03:05:38;;;;;;;3.63;3.30;;;20.90;99.90;;;;;;6124369;23;20076;-40
2021/01/27 03:08:20;;;;;;;3.42;3.13;;;20.90;99.90;;;;;;6125011;23;20085;-40
2021/01/27 03:11:10;;;;;;;3.53;3.22;;;20.90;99.90;;;;;;6124484;23;20002;-40
2021/01/27 03:13:43;;;;;;;4.03;3.38;;;20.90;99.90;;;;;;6124685;23;20006;-40
2021/01/27 03:16:24;;;;;;;3.72;3.30;;;20.90;99.90;;;;;;6124222;23;20006;-40
2021/01/27 03:19:10;;;;;;;3.55;3.25;;;20.90;99.90;;;;;;6124594;23;20125;-40
2021/01/27 03:22:00;;;;;;;3.80;3.40;;;20.90;99.90;;;;;;6122860;23;20013;-40
2021/01/27 03:24:32;;;;;;;4.95;3.58;;;20.90;99.90;;;;;;6124743;23;20006;-41
2021/01/27 03:27:12;;;;;;;4.85;3.30;;;20.90;99.90;;;;;;6124175;23;20447;-40
2021/01/27 03:29:47;;;;;;;3.25;2.95;;;20.80;99.90;;;;;;6123843;23;20002;-41
2021/01/27 03:32:28;;;;;;;3.38;3.08;;;20.80;99.90;;;;;;6123909;23;20006;-40
2021/01/27 03:35:07;;;;;;;4.57;3.13;;;20.80;99.90;;;;;;6124285;23;20008;-41
2021/01/27 03:37:59;;;;;;;4.28;3.08;;;20.80;99.90;;;;;;6124295;23;20087;-40
2021/01/27 03:40:25;;;;;;;5.53;3.25;;;20.80;99.90;;;;;;6123398;23;20429;-40
2021/01/27 03:43:22;;;;;;;4.45;3.13;;;20.80;99.90;;;;;;6123957;23;20434;-41
2021/01/27 03:46:09;;;;;;;2.70;2.45;;;20.80;99.90;;;;;;6124235;23;20002;-41
2021/01/27 03:49:05;;;;;;;3.15;2.85;;;20.80;99.90;;;;;;6125697;23;20009;-41
2021/01/27 03:51:45;;;;;;;2.70;2.50;;;20.80;99.90;;;;;;6129508;23;19998;-41
2021/01/27 03:54:16;;;;;;;3.03;2.63;;;20.80;99.90;;;;;;6155199;23;20029;-41
2021/01/27 03:56:58;;;;;;;3.25;2.72;;;20.70;99.90;;;;;;6155357;23;20005;-42
2021/01/27 03:59:27;;;;;;;4.28;2.65;;;20.80;99.90;;;;;;6155623;23;20011;-41
2021/01/27 04:01:58;;;;;;;2.97;2.67;;;20.70;99.90;;;;;;6153710;23;20432;-42
2021/01/27 04:04:29;;;;;;;2.72;2.25;;;20.70;99.90;;;;;;6155320;23;20012;-41
2021/01/27 04:07:03;;;;;;;2.30;2.10;;;20.70;99.90;;;;;;6155006;23;19997;-41
2021/01/27 04:11:55;;;;;;;2.28;2.08;;;20.70;99.90;;;;;;6126110;23;20017;-32
2021/01/27 04:14:21;;;;;;;2.42;2.13;;;20.70;99.90;;;;;;6127673;23;20077;-31
2021/01/27 04:16:46;;;;;;;2.10;1.90;;;20.70;99.90;;;;;;6127319;23;20302;-31
2021/01/27 04:19:12;;;;;;;2.42;2.15;;;20.70;99.90;;;;;;6127554;23;20013;-32
2021/01/27 04:21:38;;;;;;;2.53;2.33;;;20.60;99.90;;;;;;6127521;23;20006;-31
2021/01/27 04:24:04;;;;;;;3.00;2.55;;;20.60;99.90;;;;;;6128016;23;20009;-31
2021/01/27 04:26:31;;;;;;;2.30;2.10;;;20.60;99.90;;;;;;6127842;23;20372;-31
2021/01/27 04:28:56;;;;;;;2.50;2.30;;;20.60;99.90;;;;;;6127820;23;20036;-32
2021/01/27 04:31:22;;;;;;;3.70;2.17;;;20.70;99.90;;;;;;6127281;23;19998;-32
2021/01/27 04:33:48;;;;;;;5.07;2.78;;;20.70;99.90;;;;;;6101329;23;20057;-32
2021/01/27 04:36:15;;;;;;;3.08;2.25;;;20.70;99.90;;;;;;6127456;23;20026;-32
2021/01/27 04:38:41;;;;;;;2.60;2.22;;;20.70;99.90;;;;;;6127511;23;20052;-31
2021/01/27 04:41:07;;;;;;;2.20;1.80;;;20.70;99.90;;;;;;6127701;23;20432;-31
2021/01/27 04:43:41;;;;;;;2.17;1.75;;;20.70;99.90;;;;;;6127623;23;20362;-32
2021/01/27 04:46:19;;;;;;;2.33;1.95;;;20.70;99.90;;;;;;6127406;23;20006;-31
2021/01/27 04:49:03;;;;;;;2.17;1.63;;;20.70;99.90;;;;;;6100902;23;20005;-32
2021/01/27 04:51:51;;;;;;;2.10;1.80;;;20.70;99.90;;;;;;6127260;23;20002;-31
2021/01/27 04:54:56;;;;;;;2.33;1.70;;;20.60;99.90;;;;;;6104659;23;20002;-30
2021/01/27 04:57:53;;;;;;;1.80;1.60;;;20.70;99.90;;;;;;6060237;23;20080;-30
2021/01/27 05:00:32;;;;;;;;;;;20.70;99.90;;;;;;6117516;23;20006;-32
2021/01/27 05:03:34;;;;;;;2.17;1.60;;;20.70;99.90;;;;;;6127472;23;19951;-32
2021/01/27 05:06:04;;;;;;;1.52;1.40;;;20.60;99.90;;;;;;6127491;23;20002;-33
2021/01/27 05:09:18;;;;;;;1.85;1.15;;;20.60;99.90;;;;;;6100724;23;20008;-43
2021/01/27 05:11:45;;;;;;;1.55;1.20;;;20.60;99.90;;;;;;6004563;23;20039;-42
2021/01/27 05:14:14;;;;;;;1.80;1.20;;;20.60;99.90;;;;;;6008013;23;20004;-42
2021/01/27 05:16:40;;;;;;;2.28;1.30;;;20.60;99.90;;;;;;6008070;23;20019;-42
2021/01/27 05:19:07;;;;;;;1.30;1.00;;;20.60;99.90;;;;;;6007707;23;20082;-43
2021/01/27 05:21:43;;;;;;;1.30;1.20;;;20.50;99.90;;;;;;6007654;23;20037;-43
2021/01/27 05:24:10;;;;;;;1.38;1.13;;;20.50;99.90;;;;;;6007986;23;20428;-43
2021/01/27 05:26:57;;;;;;;1.33;1.08;;;20.60;99.90;;;;;;6007605;23;20008;-42
2021/01/27 05:29:53;;;;;;;1.33;1.23;;;20.60;99.90;;;;;;5983886;23;20032;-40
2021/01/27 05:32:24;;;;;;;1.63;1.20;;;20.60;99.90;;;;;;6007731;23;20067;-40
2021/01/27 05:34:57;;;;;;;1.23;1.10;;;20.60;99.90;;;;;;6006975;23;20027;-40
2021/01/27 05:37:28;;;;;;;1.25;0.98;;;20.60;99.90;;;;;;6007465;23;20087;-38
2021/01/27 05:40:26;;;;;;;1.48;0.80;;;20.60;99.90;;;;;;6007757;23;20063;-30
2021/01/27 05:42:52;;;;;;;0.70;0.70;;;20.50;99.90;;;;;;6008242;23;20040;-30
2021/01/27 05:45:39;;;;;;;1.20;0.90;;;20.50;99.90;;;;;;6008119;23;20012;-40
2021/01/27 05:48:14;;;;;;;0.98;0.88;;;20.50;99.90;;;;;;6116595;23;20016;-40
2021/01/27 05:50:41;;;;;;;1.05;0.98;;;20.50;99.90;;;;;;6124622;23;20013;-40
2021/01/27 05:53:12;;;;;;;0.70;0.63;;;20.60;99.90;;;;;;6125421;23;20002;-40
2021/01/27 05:55:59;;;;;;;2.97;0.93;;;20.60;99.90;;;;;;6124926;23;20010;-40
2021/01/27 05:58:27;;;;;;;1.80;0.95;;;20.60;99.90;;;;;;6124863;23;20013;-46
2021/01/27 06:01:11;;;;;;;1.08;0.95;;;20.60;99.90;;;;;;6124690;23;20081;-39
2021/01/27 06:03:37;;;;;;;1.08;0.80;;;20.60;99.90;;;;;;6124912;23;20002;-40
2021/01/27 06:06:10;;;;;;;0.88;0.75;;;20.60;99.90;;;;;;6125228;23;20012;-40
2021/01/27 06:08:56;;;;;;;0.73;0.70;;;20.60;99.90;;;;;;6125069;23;20002;-40
2021/01/27 06:11:23;;;;;;;0.57;0.57;;;20.60;99.90;;;;;;6125107;23;20018;-40
2021/01/27 06:13:50;;;;;;;1.05;0.93;;;20.50;99.90;;;;;;6125290;23;20069;-40
2021/01/27 06:16:23;;;;;;;0.98;0.82;;;20.60;99.90;;;;;;6125300;23;20010;-40
2021/01/27 06:18:49;;;;;;;0.80;0.80;;;20.60;99.90;;;;;;6125475;23;20006;-39
2021/01/27 06:21:31;;;;;;;0.60;0.60;;;20.60;99.90;;;;;;6125048;23;20010;-40
2021/01/27 06:24:39;;;;;;;0.98;0.70;;;20.60;99.90;;;;;;6125474;23;20085;-40
2021/01/27 06:27:37;;;;;;;1.20;1.10;;;20.50;99.90;;;;;;6057933;23;20030;-39
2021/01/27 06:30:30;;;;;;;1.52;0.73;;;20.50;99.90;;;;;;6125050;23;20002;-40
2021/01/27 06:33:19;;;;;;;0.82;0.77;;;20.50;99.90;;;;;;6124955;23;20006;-40
2021/01/27 06:36:00;;;;;;;0.70;0.60;;;20.60;99.90;;;;;;6124794;23;20025;-41
2021/01/27 06:38:53;;;;;;;0.68;0.63;;;20.50;99.90;;;;;;6125089;23;20005;-40
2021/01/27 06:41:49;;;;;;;1.33;0.85;;;20.50;99.90;;;;;;6124821;23;20397;-40
2021/01/27 06:44:41;;;;;;;0.93;0.50;;;20.50;99.90;;;;;;6125164;23;20005;-40
2021/01/27 06:47:23;;;;;;;0.70;0.60;;;20.50;99.90;;;;;;6124888;23;20002;-40
2021/01/27 06:50:00;;;;;;;0.95;0.82;;;20.50;99.90;;;;;;6124669;23;19998;-40
2021/01/27 06:52:44;;;;;;;0.52;0.52;;;20.50;99.90;;;;;;6124380;23;20001;-39
2021/01/27 06:55:33;;;;;;;1.42;1.33;;;20.50;99.90;;;;;;6123375;23;20002;-39
2021/01/27 06:58:05;;;;;;;5.75;5.18;;;20.50;99.90;;;;;;6124296;23;20032;-39
2021/01/27 07:00:57;;;;;;;4.63;3.97;;;20.50;99.90;;;;;;6124201;23;20010;-40
2021/01/27 07:03:42;;;;;;;11.88;10.60;;;20.50;99.90;;;;;;6056336;23;20014;-39
2021/01/27 07:06:32;;;;;;;16.15;14.45;;;20.50;99.90;;;;;;6121442;23;20387;-39
2021/01/27 07:09:28;;;;;;;16.55;14.73;;;20.50;99.90;;;;;;6123602;23;20421;-39
2021/01/27 07:12:08;;;;;;;15.73;13.55;;;20.50;99.90;;;;;;6086130;23;20072;-40
2021/01/27 07:14:43;;;;;;;19.80;15.02;;;20.50;99.90;;;;;;6122715;23;20013;-40
2021/01/27 07:17:31;;;;;;;17.55;14.73;;;20.50;99.90;;;;;;6123878;23;20472;-39
2021/01/27 07:20:10;;;;;;;12.10;10.80;;;20.50;99.90;;;;;;6122306;23;20413;-40
2021/01/27 07:23:07;;;;;;;144.80;111.72;;;20.50;99.90;;;;;;6126018;23;20053;-39
2021/01/27 07:25:46;;;;;;;40.77;35.07;;;20.50;99.90;;;;;;6126334;23;20006;-39
2021/01/27 07:28:22;;;;;;;12.70;9.68;;;20.40;99.90;;;;;;6126027;23;20222;-38
2021/01/27 07:31:03;;;;;;;40.58;36.17;;;20.30;99.90;;;;;;6125943;23;20004;-39
2021/01/27 07:33:47;;;;;;;206.95;184.55;;;20.20;99.90;;;;;;6126680;23;20008;-39
2021/01/27 07:36:27;;;;;;;35.90;32.00;;;20.20;99.90;;;;;;6124614;23;20333;-39
2021/01/27 07:38:57;;;;;;;8.70;7.20;;;20.20;99.90;;;;;;6126597;23;20101;-39
2021/01/27 07:41:28;;;;;;;6.10;4.47;;;20.20;99.90;;;;;;6125902;23;20032;-39
2021/01/27 07:44:03;;;;;;;66.80;59.53;;;20.10;99.90;;;;;;6125906;23;20048;-39
2021/01/27 07:46:40;;;;;;;29.88;26.88;;;20.20;99.90;;;;;;6124905;23;20715;-39
2021/01/27 07:49:07;;;;;;;7.90;6.25;;;20.20;99.90;;;;;;6123660;23;20012;-40
2021/01/27 07:51:58;;;;;;;17.55;14.45;;;20.10;99.90;;;;;;6126151;23;19998;-31
2021/01/27 07:54:44;;;;;;;9.68;8.55;;;20.20;99.90;;;;;;6125868;23;20409;-33
2021/01/27 07:57:20;;;;;;;23.13;20.77;;;20.20;99.90;;;;;;6126839;23;20056;-32
2021/01/27 07:59:53;;;;;;;130.32;117.07;;;20.30;99.90;;;;;;6125929;23;20013;-32
2021/01/27 08:02:24;;;;;;;24.10;21.60;;;20.30;99.90;;;;;;6127820;23;20486;-32
2021/01/27 08:04:56;;;;;;;17.95;15.25;;;20.30;99.90;;;;;;6127043;23;20472;-32
2021/01/27 08:07:30;;;;;;;12.20;10.90;;;20.40;99.90;;;;;;6127380;23;20436;-32
2021/01/27 08:10:25;;;;;;;13.60;12.13;;;20.40;99.90;;;;;;6127534;23;20093;-32
2021/01/27 08:12:54;;;;;;;10.43;8.23;;;20.40;99.90;;;;;;6126833;23;20016;-32
2021/01/27 08:15:26;;;;;;;8.43;7.55;;;20.50;99.90;;;;;;6127366;23;20368;-32
2021/01/27 08:17:55;;;;;;;10.73;7.28;;;20.50;99.90;;;;;;6127446;23;20085;-33
2021/01/27 08:20:31;;;;;;;4.60;3.65;;;20.60;99.90;;;;;;6127447;23;20078;-32
2021/01/27 08:23:02;;;;;;;3.95;3.00;;;20.50;99.90;;;;;;6127543;23;20041;-32
2021/01/27 08:25:53;;;;;;;3.70;1.73;;;20.40;99.90;;;;;;6127161;23;20133;-32
2021/01/27 08:28:37;;;;;;;4.30;2.90;;;20.40;99.90;;;;;;6127165;23;20086;-32
2021/01/27 08:31:09;;;;;;;2.95;1.98;;;20.40;99.90;;;;;;6127025;23;19998;-32
2021/01/27 08:33:47;;;;;;;4.45;3.65;;;20.30;99.90;;;;;;6126730;23;20329;-32
2021/01/27 08:36:29;;;;;;;4.88;2.15;;;20.40;99.90;;;;;;6100552;23;20005;-40
2021/01/27 08:38:55;;;;;;;1.95;1.25;;;20.40;99.90;;;;;;6126849;23;20022;-40
2021/01/27 08:41:44;;;;;;;3.00;1.15;;;20.40;99.90;;;;;;6126258;23;20032;-40
2021/01/27 08:44:23;;;;;;;3.50;1.30;;;20.30;99.90;;;;;;6126751;23;20137;-40
2021/01/27 08:47:20;;;;;;;1.55;1.30;;;20.30;99.90;;;;;;6126420;23;20006;-40
2021/01/27 08:50:00;;;;;;;127.03;103.43;;;20.40;99.90;;;;;;6126774;23;20002;-37
2021/01/27 08:52:40;;;;;;;39.80;28.20;;;20.60;99.90;;;;;;6126490;23;20682;-38
2021/01/27 08:55:33;;;;;;;17.90;12.23;;;20.60;99.90;;;;;;6125226;23;20014;-38
2021/01/27 08:58:29;;;;;;;7.78;5.55;;;20.80;99.90;;;;;;6099015;23;20018;-38
2021/01/27 09:01:02;;;;;;;7.57;5.00;;;20.80;99.90;;;;;;6125497;23;20005;-38
2021/01/27 09:03:51;;;;;;;4.95;2.13;;;20.80;99.90;;;;;;6125189;23;20025;-37
2021/01/27 09:06:44;;;;;;;4.00;2.22;;;20.80;99.90;;;;;;6099820;23;20018;-37
2021/01/27 09:09:13;;;;;;;2.78;1.80;;;20.90;99.90;;;;;;6125120;23;20010;-37
2021/01/27 09:11:39;;;;;;;6.03;1.70;;;21.00;99.90;;;;;;6125132;23;20429;-37
2021/01/27 09:14:11;;;;;;;6.10;1.88;;;21.00;99.90;;;;;;6124957;23;20013;-37
2021/01/27 09:16:39;;;;;;;2.28;1.60;;;21.00;99.90;;;;;;6125266;23;20439;-37
2021/01/27 09:19:19;;;;;;;4.72;1.85;;;21.00;99.90;;;;;;6124668;23;20073;-37
2021/01/27 09:22:06;;;;;;;9.80;2.28;;;21.00;99.90;;;;;;6125623;23;20393;-31
2021/01/27 09:24:41;;;;;;;19.05;2.58;;;21.20;99.90;;;;;;6125261;23;20014;-33
2021/01/27 09:27:31;;;;;;;7.05;2.30;;;21.20;99.90;;;;;;6124085;23;20010;-34
2021/01/27 09:30:12;;;;;;;12.55;2.60;;;21.30;99.90;;;;;;6124534;23;19998;-33
2021/01/27 09:32:39;;;;;;;6.07;2.10;;;21.40;99.90;;;;;;6124532;23;20026;-33
2021/01/27 09:35:15;;;;;;;4.00;2.20;;;21.40;99.90;;;;;;6124932;23;20009;-34
2021/01/27 09:37:59;;;;;;;4.88;2.17;;;21.40;99.90;;;;;;6124867;23;20076;-34
2021/01/27 09:40:30;;;;;;;7.95;6.97;;;21.50;99.90;;;;;;6125014;23;20006;-34
2021/01/27 09:43:00;;;;;;;16.85;15.05;;;21.50;99.90;;;;;;6099414;23;20337;-34
2021/01/27 09:45:29;;;;;;;17.40;15.15;;;21.60;99.90;;;;;;6124225;23;20029;-34
2021/01/27 09:47:57;;;;;;;42.17;34.45;;;21.60;99.90;;;;;;6125091;23;20012;-34
2021/01/27 09:50:24;;;;;;;11.35;9.27;;;21.70;99.90;;;;;;6124984;23;20006;-32
2021/01/27 09:52:58;;;;;;;15.27;13.68;;;21.70;99.90;;;;;;6125185;23;20002;-32
2021/01/27 09:55:26;;;;;;;7.18;4.05;;;21.80;99.90;;;;;;6098656;23;20136;-28
2021/01/27 09:57:52;;;;;;;14.90;4.55;;;21.90;99.90;;;;;;6124695;23;20362;-29
2021/01/27 10:00:24;;;;;;;16.70;5.75;;;22.00;99.90;;;;;;6098702;23;20006;-29
2021/01/27 10:02:52;;;;;;;5.82;2.83;;;22.10;99.90;;;;;;6124065;23;20033;-29
2021/01/27 10:05:38;;;;;;;6.93;2.08;;;22.10;99.90;;;;;;6124442;23;20046;-29
2021/01/27 10:08:12;;;;;;;28.45;4.82;;;22.20;99.90;;;;;;6124301;23;20421;-29
2021/01/27 10:10:38;;;;;;;6.78;2.03;;;22.20;99.90;;;;;;6124383;23;20493;-29
2021/01/27 10:13:04;;;;;;;11.93;2.40;;;22.20;99.90;;;;;;6124192;23;20076;-29
2021/01/27 10:15:34;;;;;;;7.20;2.53;;;22.30;99.90;;;;;;6098359;23;20056;-29
2021/01/27 10:18:19;;;;;;;3.53;1.13;;;22.30;99.90;;;;;;6124362;23;20006;-29
2021/01/27 10:20:47;;;;;;;4.57;1.30;;;22.30;99.90;;;;;;6124160;23;20421;-26
2021/01/27 10:23:32;;;;;;;5.32;1.17;;;22.40;99.90;;;;;;6124099;23;20013;-26
2021/01/27 10:26:44;;;;;;;7.82;2.05;;;22.50;99.90;;;;;;6123974;23;20017;-26
2021/01/27 10:29:17;;;;;;;2.25;1.67;;;22.50;99.90;;;;;;6117057;23;20006;-26
2021/01/27 10:31:46;;;;;;;1.60;1.50;;;22.60;99.90;;;;;;6123982;23;20061;-27
2021/01/27 10:34:39;;;;;;;2.30;1.20;;;22.60;99.90;;;;;;6123913;23;20006;-29
2021/01/27 10:37:24;;;;;;;4.40;1.20;;;22.70;99.90;;;;;;6124219;23;20408;-26
2021/01/27 10:40:20;;;;;;;2.33;1.15;;;22.70;99.90;;;;;;6123897;23;20057;-28
2021/01/27 10:42:53;;;;;;;4.03;1.33;;;22.80;99.90;;;;;;6124380;23;19998;-26
2021/01/27 10:45:24;;;;;;;2.65;1.58;;;22.80;99.90;;;;;;6124429;23;20033;-27
2021/01/27 10:48:04;;;;;;;2.60;1.98;;;22.90;99.90;;;;;;6124347;23;20009;-26
2021/01/27 10:50:30;;;;;;;3.65;2.97;;;23.00;99.90;;;;;;6124259;23;19998;-26
2021/01/27 10:52:58;;;;;;;11.07;3.40;;;22.90;99.90;;;;;;6098269;23;20009;-26
2021/01/27 10:55:30;;;;;;;4.55;2.45;;;23.00;99.90;;;;;;6124193;23;20006;-27
2021/01/27 10:58:05;;;;;;;6.65;1.90;;;23.20;99.90;;;;;;6124511;23;20420;-29
2021/01/27 11:00:31;;;;;;;11.18;7.82;;;23.20;99.90;;;;;;6124227;23;20001;-27
2021/01/27 11:02:57;;;;;;;8.68;7.30;;;23.30;99.90;;;;;;6124091;23;20009;-27
2021/01/27 11:05:22;;;;;;;8.15;4.05;;;23.30;99.90;;;;;;6123709;23;20002;-28
2021/01/27 11:07:49;;;;;;;3.53;2.42;;;23.40;99.90;;;;;;6124059;23;19998;-28
2021/01/27 11:10:15;;;;;;;4.18;1.70;;;23.40;99.90;;;;;;6123950;23;20018;-28
2021/01/27 11:12:41;;;;;;;1.60;1.13;;;23.50;99.90;;;;;;6124414;23;20013;-27
2021/01/27 11:15:07;;;;;;;1.30;0.90;;;23.60;99.90;;;;;;6123927;23;20010;-27
2021/01/27 11:17:33;;;;;;;5.10;0.75;;;23.60;99.90;;;;;;6124033;23;20010;-28
2021/01/27 11:19:59;;;;;;;2.20;0.90;;;23.70;99.90;;;;;;6124162;23;20010;-27
2021/01/27 11:22:25;;;;;;;37.95;31.25;;;23.80;99.90;;;;;;6124060;23;20036;-28
2021/01/27 11:24:51;;;;;;;23.55;18.00;;;23.80;99.90;;;;;;6123981;23;20006;-28
2021/01/27 11:27:17;;;;;;;19.00;14.18;;;23.80;99.90;;;;;;6124161;23;19997;-28
2021/01/27 11:29:43;;;;;;;7.90;6.53;;;23.90;99.90;;;;;;6124139;23;20029;-28
2021/01/27 11:32:08;;;;;;;5.30;3.22;;;24.00;99.90;;;;;;6123960;23;20006;-27
2021/01/27 11:34:35;;;;;;;4.73;2.33;;;24.00;99.90;;;;;;6094315;23;20345;-27
2021/01/27 11:37:01;;;;;;;5.60;2.13;;;24.00;99.90;;;;;;6093312;23;20034;-27
2021/01/27 11:39:27;;;;;;;14.07;8.38;;;24.10;99.90;;;;;;6094579;23;20009;-27
2021/01/27 11:41:53;;;;;;;8.85;5.97;;;24.20;99.90;;;;;;6094895;23;20009;-27
2021/01/27 11:44:19;;;;;;;3.80;3.00;;;24.20;99.90;;;;;;6094615;23;20013;-27
2021/01/27 11:46:46;;;;;;;6.47;2.33;;;24.30;99.90;;;;;;6094747;23;20102;-27
2021/01/27 11:49:13;;;;;;;2.05;1.35;;;24.30;99.90;;;;;;6094559;23;20003;-27
2021/01/27 11:51:39;;;;;;;4.90;1.48;;;24.40;99.90;;;;;;6095076;23;20029;-27
2021/01/27 11:54:05;;;;;;;1.75;1.15;;;24.40;99.90;;;;;;6094491;23;20009;-28
2021/01/27 11:56:31;;;;;;;1.33;0.90;;;24.50;99.90;;;;;;6094815;23;20010;-27
2021/01/27 11:58:57;;;;;;;1.73;1.05;;;24.50;99.90;;;;;;6094544;23;20010;-27
2021/01/27 12:01:27;;;;;;;11.45;6.93;;;24.50;99.90;;;;;;6094662;23;20302;-27
2021/01/27 12:03:53;;;;;;;4.70;3.85;;;24.60;99.90;;;;;;6094530;23;20002;-27
2021/01/27 12:06:19;;;;;;;16.33;12.13;;;24.70;99.90;;;;;;6094477;23;20342;-27
2021/01/27 12:08:45;;;;;;;33.08;29.65;;;24.70;99.90;;;;;;6095103;23;19998;-27
2021/01/27 12:11:11;;;;;;;12.05;10.45;;;24.80;99.90;;;;;;6096089;23;20112;-27
2021/01/27 12:13:37;;;;;;;17.95;14.00;;;24.80;99.90;;;;;;6070810;23;20015;-27
2021/01/27 12:16:03;;;;;;;11.23;9.90;;;24.80;99.90;;;;;;6096556;23;20329;-27
2021/01/27 12:18:29;;;;;;;11.77;8.10;;;24.80;99.90;;;;;;6096569;23;20010;-27
2021/01/27 12:20:55;;;;;;;5.88;3.80;;;24.80;99.90;;;;;;6096224;23;20013;-28
2021/01/27 12:23:21;;;;;;;3.72;3.08;;;24.80;99.90;;;;;;6096619;23;20014;-30
2021/01/27 12:25:47;;;;;;;5.25;1.40;;;24.90;99.90;;;;;;6096210;23;20392;-27
2021/01/27 12:28:14;;;;;;;3.20;1.48;;;25.00;99.90;;;;;;6098484;23;20077;-35
2021/01/27 12:30:40;;;;;;;2.25;1.70;;;25.00;99.90;;;;;;6071914;23;20381;-34
2021/01/27 12:33:07;;;;;;;8.50;2.35;;;25.00;99.90;;;;;;6048038;23;20070;-35
2021/01/27 12:35:34;;;;;;;4.90;1.80;;;25.10;99.90;;;;;;6097624;23;20006;-35
2021/01/27 12:38:00;;;;;;;5.93;1.40;;;25.10;99.90;;;;;;6097411;23;20006;-35
2021/01/27 12:40:26;;;;;;;6.57;1.63;;;25.10;99.90;;;;;;6071942;23;20010;-36
2021/01/27 12:42:52;;;;;;;1.83;1.27;;;25.10;99.90;;;;;;6097926;23;20337;-35
2021/01/27 12:45:21;;;;;;;4.47;1.30;;;25.10;99.90;;;;;;6097413;23;20434;-35
2021/01/27 12:47:47;;;;;;;1.65;0.70;;;25.10;99.90;;;;;;6097301;23;20007;-35
2021/01/27 12:50:14;;;;;;;2.10;0.90;;;25.10;99.90;;;;;;6097210;23;20073;-35
2021/01/27 12:52:40;;;;;;;2.67;0.90;;;25.10;99.90;;;;;;6097846;23;19998;-35
2021/01/27 12:55:10;;;;;;;3.63;1.10;;;25.10;99.90;;;;;;6097277;23;20326;-35
2021/01/27 12:57:39;;;;;;;2.95;1.45;;;25.10;99.90;;;;;;6097838;23;20389;-34
2021/01/27 13:00:08;;;;;;;1.50;1.10;;;25.10;99.90;;;;;;6097213;23;20413;-34
2021/01/27 13:02:34;;;;;;;1.92;1.13;;;25.10;99.90;;;;;;6097551;23;20003;-35
2021/01/27 13:05:00;;;;;;;2.00;1.20;;;25.20;99.90;;;;;;6071692;23;20053;-35
2021/01/27 13:07:26;;;;;;;0.82;0.82;;;25.20;99.90;;;;;;6097768;23;20006;-35
2021/01/27 13:09:52;;;;;;;3.58;1.95;;;25.30;99.90;;;;;;6095459;23;20016;-33
2021/01/27 13:12:18;;;;;;;3.20;1.20;;;25.30;99.90;;;;;;6097293;23;20006;-35
2021/01/27 13:14:44;;;;;;;2.55;1.58;;;25.30;99.90;;;;;;6097340;23;20027;-34
2021/01/27 13:17:10;;;;;;;3.00;1.27;;;25.30;99.90;;;;;;6097133;23;20010;-34
2021/01/27 13:19:36;;;;;;;3.95;1.30;;;25.30;99.90;;;;;;6096820;23;20002;-34
2021/01/27 13:22:02;;;;;;;1.38;0.98;;;25.30;99.90;;;;;;6096520;23;20006;-35
2021/01/27 13:24:27;;;;;;;3.15;1.45;;;25.30;99.90;;;;;;6096601;23;20354;-35